FA69 weather

Duda Airstrip
Belle Glade, Florida, United States

Public forecast

Using degrees Fahrenheit for public forecast. Weather courtesy of forecast.io.

METAR (pilot weather report)

Closest report is Palm Beach International Airport, 29.6 nm (54.9 km) ENE. Retrieved 2019/06/16 15:53 UTC (9 minutes ago):

KPBI 161553Z 15007KT 10SM SCT025 BKN090 BKN120 28/21 A3008 RMK AO2 SLP187 CB DSNT SW NW T02780211

TAF (pilot weather forecast)

Closest forecast is Palm Beach International Airport, 29.6 nm (54.9 km) ENE. Retrieved 2019/06/16 12:48 UTC (3 hours ago):

TAF KPBI 161141Z 1612/1712 16008KT P6SM SHRA VCTS SCT025CB BKN080 BKN200 FM161500 13011KT P6SM VCTS SCT025CB BKN050 BKN200 FM170100 11006KT P6SM SCT025 SCT070 BKN200